Time;durP1;ratioP1;P1;durP2;ratioP2;P2;SDS_P1;SDS_P2;PMS_P1;PMS_P2;Temp;Humidity;BMP_temperature;BMP_pressure;BME280_temperature;BME280_humidity;BME280_pressure;Samples;Min_cycle;Max_cycle;Signal;HPM_P1;HPM_P2
2021/11/01 00:01:49;;;;;;;15.52;2.17;;;11.20;94.50;;;;;;5030714;28;20033;-78
2021/11/01 00:04:16;;;;;;;15.10;2.17;;;11.10;94.50;;;;;;5029789;28;20037;-78
2021/11/01 00:06:41;;;;;;;15.00;2.33;;;11.10;94.50;;;;;;5030127;28;20040;-78
2021/11/01 00:09:07;;;;;;;11.10;2.15;;;11.10;94.50;;;;;;5012995;28;20112;-79
2021/11/01 00:11:33;;;;;;;9.27;1.77;;;11.10;94.50;;;;;;5029961;28;20040;-79
2021/11/01 00:13:58;;;;;;;17.33;2.30;;;11.00;94.40;;;;;;5031072;28;20025;-79
2021/11/01 00:16:24;;;;;;;14.48;2.38;;;11.00;94.40;;;;;;5030345;28;20025;-79
2021/11/01 00:18:50;;;;;;;14.38;2.20;;;11.00;94.40;;;;;;4996890;28;20661;-79
2021/11/01 00:21:16;;;;;;;14.95;2.50;;;11.00;94.50;;;;;;5029838;28;20041;-79
2021/11/01 00:23:44;;;;;;;9.50;1.95;;;11.00;94.50;;;;;;5029521;28;20086;-79
2021/11/01 00:26:10;;;;;;;19.10;2.55;;;10.90;94.50;;;;;;5029897;28;20030;-79
2021/11/01 00:28:36;;;;;;;14.07;2.53;;;10.90;94.50;;;;;;4999610;28;20033;-78
2021/11/01 00:31:02;;;;;;;17.17;2.25;;;10.80;94.50;;;;;;5026541;28;20037;-79
2021/11/01 00:33:28;;;;;;;10.18;1.40;;;10.80;94.50;;;;;;5029287;28;20367;-78
2021/11/01 00:35:55;;;;;;;11.40;1.83;;;10.80;94.60;;;;;;5011998;28;20034;-79
2021/11/01 00:38:20;;;;;;;11.63;2.10;;;10.80;94.60;;;;;;5029883;28;20017;-78
2021/11/01 00:40:46;;;;;;;9.70;1.83;;;10.70;94.60;;;;;;5029624;28;20135;-79
2021/11/01 00:43:12;;;;;;;20.00;2.47;;;10.70;94.70;;;;;;5018730;28;20029;-79
2021/11/01 00:45:37;;;;;;;9.70;2.05;;;10.70;94.70;;;;;;5029455;28;20029;-78
2021/11/01 00:48:03;;;;;;;11.13;1.75;;;10.70;94.60;;;;;;5013342;28;20033;-79
2021/11/01 00:50:32;;;;;;;13.07;2.15;;;10.70;94.70;;;;;;5013349;28;20075;-79
2021/11/01 00:52:58;;;;;;;12.57;1.90;;;10.70;94.70;;;;;;5013408;28;20452;-78
2021/11/01 00:55:32;;;;;;;11.70;1.70;;;10.70;94.70;;;;;;5031241;28;20034;-78
2021/11/01 00:57:58;;;;;;;9.82;1.80;;;10.70;94.70;;;;;;5031016;28;20385;-79
2021/11/01 01:00:24;;;;;;;10.02;1.73;;;10.70;94.70;;;;;;5046541;28;20100;-78
2021/11/01 01:02:50;;;;;;;8.73;1.50;;;10.60;94.60;;;;;;5030824;28;20034;-79
2021/11/01 01:05:16;;;;;;;10.77;2.30;;;10.60;94.60;;;;;;5031269;28;20474;-79
2021/11/01 01:07:41;;;;;;;12.00;2.22;;;10.60;94.60;;;;;;5031174;28;20029;-78
2021/11/01 01:10:07;;;;;;;11.40;1.73;;;10.60;94.70;;;;;;5012854;28;20080;-78
2021/11/01 01:12:33;;;;;;;11.27;2.08;;;10.50;94.70;;;;;;5030247;28;20021;-79
2021/11/01 01:15:03;;;;;;;12.07;1.75;;;10.50;94.70;;;;;;5030827;28;20028;-79
2021/11/01 01:17:29;;;;;;;15.50;2.03;;;10.50;94.70;;;;;;5074724;27;20466;-78
2021/11/01 01:20:04;;;;;;;13.25;1.70;;;10.50;94.70;;;;;;5150665;27;20042;-79
2021/11/01 01:22:31;;;;;;;13.50;1.67;;;10.50;94.70;;;;;;5112476;27;20439;-79
2021/11/01 01:25:05;;;;;;;12.43;1.60;;;10.50;94.70;;;;;;5050573;28;20033;-79
2021/11/01 01:27:31;;;;;;;15.40;1.98;;;10.50;94.70;;;;;;5050082;28;20021;-79
2021/11/01 01:29:57;;;;;;;15.35;2.25;;;10.40;94.70;;;;;;5031340;28;20037;-79
2021/11/01 01:32:23;;;;;;;15.90;1.85;;;10.40;94.70;;;;;;5031088;28;20029;-79
2021/11/01 01:34:49;;;;;;;12.88;2.33;;;10.40;94.70;;;;;;5050289;28;20054;-79
2021/11/01 01:37:15;;;;;;;12.40;1.67;;;10.40;94.70;;;;;;5032747;28;20029;-79
2021/11/01 01:39:41;;;;;;;12.55;2.35;;;10.40;94.70;;;;;;5050463;28;20126;-79
2021/11/01 01:42:07;;;;;;;12.07;1.85;;;10.40;94.60;;;;;;5027181;28;20505;-79
2021/11/01 01:44:33;;;;;;;11.57;1.50;;;10.40;94.60;;;;;;5050536;28;20029;-79
2021/11/01 01:46:59;;;;;;;12.80;1.75;;;10.40;94.70;;;;;;5050826;28;20033;-78
2021/11/01 01:49:25;;;;;;;12.45;1.70;;;10.40;94.60;;;;;;5032417;28;20105;-79
2021/11/01 01:51:50;;;;;;;16.15;2.17;;;10.40;94.90;;;;;;5032492;28;20037;-79
2021/11/01 01:54:16;;;;;;;10.52;1.67;;;10.40;94.60;;;;;;5032378;28;20050;-79
2021/11/01 01:56:42;;;;;;;10.68;1.60;;;10.40;94.60;;;;;;5047093;28;20072;-79
2021/11/01 01:59:11;;;;;;;9.32;1.60;;;10.30;94.60;;;;;;5032475;28;20034;-79
2021/11/01 02:01:37;;;;;;;8.25;2.10;;;10.30;94.60;;;;;;5012313;28;20033;-79
2021/11/01 02:04:04;;;;;;;14.57;1.88;;;10.40;94.60;;;;;;5032359;28;20401;-79
2021/11/01 02:07:13;;;;;;;12.05;1.80;;;10.40;94.60;;;;;;5050216;28;20452;-78
2021/11/01 02:10:10;;;;;;;9.45;1.25;;;10.40;94.70;;;;;;5070712;28;20029;-78
2021/11/01 02:12:44;;;;;;;9.13;1.60;;;10.30;94.60;;;;;;5020051;28;20444;-79
2021/11/01 02:15:40;;;;;;;8.98;1.77;;;10.40;94.60;;;;;;5012467;28;20026;-79
2021/11/01 02:18:07;;;;;;;11.27;1.90;;;10.40;94.60;;;;;;5025557;28;20129;-79
2021/11/01 02:20:35;;;;;;;13.63;1.70;;;10.30;94.60;;;;;;5010152;28;20030;-79
2021/11/01 02:23:22;;;;;;;13.67;2.27;;;10.30;94.60;;;;;;4994366;28;20026;-78
2021/11/01 02:25:51;;;;;;;8.20;1.40;;;10.30;94.60;;;;;;5038672;28;20264;-79
2021/11/01 02:28:25;;;;;;;16.02;1.75;;;10.30;94.60;;;;;;5029840;28;20045;-79
2021/11/01 02:30:52;;;;;;;10.07;1.60;;;10.20;94.60;;;;;;5029818;28;20033;-78
2021/11/01 02:33:19;;;;;;;9.52;1.52;;;10.20;94.60;;;;;;5031430;28;20051;-78
2021/11/01 02:35:45;;;;;;;13.05;1.70;;;10.20;94.70;;;;;;5032119;28;20025;-78
2021/11/01 02:38:17;;;;;;;11.20;1.70;;;10.20;94.70;;;;;;5026961;28;20429;-78
2021/11/01 02:40:44;;;;;;;10.10;1.42;;;10.30;94.80;;;;;;5011985;28;20053;-78
2021/11/01 02:43:11;;;;;;;10.20;1.75;;;10.30;94.80;;;;;;5011794;28;20059;-79
2021/11/01 02:45:37;;;;;;;10.23;1.88;;;10.30;94.80;;;;;;5012032;28;20040;-79
2021/11/01 02:48:03;;;;;;;14.63;1.67;;;10.30;94.90;;;;;;5011653;28;20086;-78
2021/11/01 02:50:28;;;;;;;10.38;1.58;;;10.30;94.90;;;;;;5029390;28;20420;-78
2021/11/01 02:52:54;;;;;;;8.15;1.63;;;10.30;94.90;;;;;;5037816;28;20181;-79
2021/11/01 02:55:21;;;;;;;13.05;1.63;;;10.30;94.90;;;;;;5022894;28;20018;-78
2021/11/01 02:57:47;;;;;;;11.75;1.73;;;10.30;94.90;;;;;;5011723;28;20393;-79
2021/11/01 03:00:15;;;;;;;12.90;2.08;;;10.30;94.90;;;;;;5029500;28;20018;-78
2021/11/01 03:02:42;;;;;;;14.07;2.30;;;10.20;95.00;;;;;;5013275;28;20042;-79
2021/11/01 03:05:17;;;;;;;12.32;1.92;;;10.30;95.10;;;;;;4996353;28;20033;-79
2021/11/01 03:07:44;;;;;;;6.75;1.70;;;10.30;95.10;;;;;;5029292;28;20105;-79
2021/11/01 03:10:11;;;;;;;13.57;1.75;;;10.30;95.10;;;;;;5029167;28;20134;-78
2021/11/01 03:12:43;;;;;;;18.77;2.30;;;10.30;95.10;;;;;;5011948;28;20041;-79
2021/11/01 03:15:11;;;;;;;11.00;1.60;;;10.20;95.10;;;;;;5011601;28;20033;-79
2021/11/01 03:17:46;;;;;;;7.70;1.52;;;10.30;95.10;;;;;;5029214;28;20492;-79
2021/11/01 03:20:19;;;;;;;11.63;1.73;;;10.30;95.10;;;;;;5011582;28;20112;-79
2021/11/01 03:22:52;;;;;;;18.13;2.08;;;10.30;95.20;;;;;;5029254;28;20109;-79
2021/11/01 03:25:55;;;;;;;8.52;1.85;;;10.30;95.20;;;;;;5029179;28;20559;-79
2021/11/01 03:28:22;;;;;;;14.52;1.63;;;10.20;95.20;;;;;;5033367;28;20044;-79
2021/11/01 03:30:48;;;;;;;14.38;2.22;;;10.20;95.20;;;;;;5029221;28;20512;-79
2021/11/01 03:33:15;;;;;;;14.20;2.10;;;10.20;95.20;;;;;;5029330;28;20041;-79
2021/11/01 03:35:44;;;;;;;11.00;1.75;;;10.20;95.30;;;;;;5032521;28;20030;-79
2021/11/01 03:38:12;;;;;;;9.45;1.50;;;10.30;95.30;;;;;;5032417;28;20053;-78
2021/11/01 03:40:41;;;;;;;12.75;2.17;;;10.20;95.20;;;;;;5032468;28;20524;-79
2021/11/01 03:43:08;;;;;;;16.50;1.88;;;10.20;95.20;;;;;;5049092;28;20028;-79
2021/11/01 03:45:35;;;;;;;9.30;1.40;;;10.30;95.20;;;;;;5034093;28;20519;-79
2021/11/01 03:48:03;;;;;;;11.25;2.10;;;10.30;95.20;;;;;;5034419;28;20074;-79
2021/11/01 03:50:42;;;;;;;9.32;1.65;;;10.30;95.20;;;;;;5034574;28;20118;-78
2021/11/01 03:53:08;;;;;;;;;;;10.30;95.20;;;;;;5052945;27;20124;-78
2021/11/01 03:55:35;;;;;;;11.43;2.00;;;10.30;95.10;;;;;;5034533;28;19952;-79
2021/11/01 03:58:01;;;;;;;14.23;1.88;;;10.30;95.20;;;;;;5052223;28;20025;-79
2021/11/01 04:00:30;;;;;;;12.63;2.17;;;10.20;95.20;;;;;;5034703;28;20394;-79
2021/11/01 04:02:57;;;;;;;18.15;2.35;;;10.20;95.20;;;;;;5032039;28;20033;-79
2021/11/01 04:05:23;;;;;;;16.08;2.22;;;10.20;95.10;;;;;;5031241;28;20033;-79
2021/11/01 04:07:49;;;;;;;13.57;2.13;;;10.30;95.20;;;;;;5011381;28;20033;-79
2021/11/01 04:10:14;;;;;;;14.85;2.03;;;10.20;95.20;;;;;;5031002;28;20756;-79
2021/11/01 04:12:44;;;;;;;7.68;1.77;;;10.20;95.20;;;;;;5047026;28;20377;-79
2021/11/01 04:15:14;;;;;;;10.82;1.75;;;10.30;95.20;;;;;;5012012;28;20025;-79
2021/11/01 04:22:37;;;;;;;12.40;1.98;;;10.20;95.10;;;;;;5020437;28;20045;-79
2021/11/01 04:25:05;;;;;;;16.23;1.95;;;10.20;95.20;;;;;;5036800;28;20390;-79
2021/11/01 04:27:31;;;;;;;13.63;1.92;;;10.20;95.20;;;;;;5041823;28;20033;-79
2021/11/01 04:29:59;;;;;;;14.90;2.08;;;10.20;95.20;;;;;;5005127;28;20489;-79
2021/11/01 04:32:38;;;;;;;11.00;1.92;;;10.10;95.20;;;;;;5017340;28;20029;-79
2021/11/01 04:37:34;;;;;;;11.15;1.90;;;10.10;95.30;;;;;;5051899;28;20025;-79
2021/11/01 04:42:52;;;;;;;16.77;2.25;;;10.10;95.20;;;;;;5051725;28;20892;-79
2021/11/01 04:53:32;;;;;;;13.35;1.67;;;10.10;95.20;;;;;;5032957;28;20044;-79
2021/11/01 04:55:58;;;;;;;15.25;2.40;;;10.10;95.20;;;;;;5013890;28;20026;-79
2021/11/01 04:58:24;;;;;;;12.05;2.58;;;10.10;95.20;;;;;;4997335;28;20496;-79
2021/11/01 05:00:51;;;;;;;14.23;2.30;;;10.00;95.10;;;;;;5031251;28;20096;-79
2021/11/01 05:03:37;;;;;;;12.77;2.20;;;10.10;95.10;;;;;;5013788;28;20022;-78
2021/11/01 05:06:04;;;;;;;13.25;1.83;;;10.10;95.10;;;;;;5013448;28;20022;-78
2021/11/01 05:08:39;;;;;;;19.20;1.65;;;10.00;95.10;;;;;;5030928;28;20037;-79
2021/11/01 05:11:13;;;;;;;10.93;1.90;;;10.00;95.10;;;;;;5009958;28;20045;-79
2021/11/01 05:13:38;;;;;;;9.23;1.60;;;10.00;95.10;;;;;;5015593;28;20026;-79
2021/11/01 05:19:04;;;;;;;10.30;1.77;;;9.90;95.10;;;;;;5029550;28;20046;-79
2021/11/01 05:24:11;;;;;;;13.25;1.80;;;9.90;95.20;;;;;;5031011;28;20030;-79
2021/11/01 05:29:11;;;;;;;12.88;1.85;;;9.90;95.10;;;;;;5032114;28;20393;-79
2021/11/01 05:31:47;;;;;;;11.07;1.55;;;9.90;95.10;;;;;;5010828;28;20033;-79
2021/11/01 05:34:17;;;;;;;12.25;1.60;;;9.90;95.10;;;;;;4996186;28;20150;-79
2021/11/01 05:36:43;;;;;;;21.85;2.58;;;9.90;95.10;;;;;;5129598;27;20468;-79
2021/11/01 05:39:09;;;;;;;12.70;2.30;;;9.80;95.10;;;;;;5134274;27;20032;-79
2021/11/01 05:41:36;;;;;;;15.63;2.55;;;9.80;95.00;;;;;;5150607;27;20038;-79
2021/11/01 05:44:03;;;;;;;11.20;1.70;;;9.90;95.00;;;;;;5132640;27;20051;-79
2021/11/01 05:46:34;;;;;;;11.70;1.67;;;9.90;95.00;;;;;;5031568;28;20025;-79
2021/11/01 05:49:00;;;;;;;15.05;2.03;;;9.90;95.00;;;;;;5012461;28;20494;-78
2021/11/01 05:51:26;;;;;;;12.23;1.65;;;9.90;95.00;;;;;;5015695;28;20401;-79
2021/11/01 05:53:55;;;;;;;15.25;1.88;;;9.90;94.90;;;;;;5031963;28;20090;-79
2021/11/01 06:04:15;;;;;;;12.75;1.95;;;9.80;94.80;;;;;;5055653;28;20043;-79
2021/11/01 06:06:57;;;;;;;19.52;2.05;;;9.80;94.90;;;;;;5048620;28;20033;-79
2021/11/01 06:14:32;;;;;;;9.63;2.20;;;9.80;94.90;;;;;;5049945;28;20032;-80
2021/11/01 06:16:58;;;;;;;19.63;2.05;;;9.80;94.90;;;;;;5032243;28;20033;-80
2021/11/01 06:19:24;;;;;;;14.60;2.00;;;9.80;94.90;;;;;;5018846;28;20025;-80
2021/11/01 06:21:51;;;;;;;13.57;2.17;;;9.70;94.90;;;;;;5060021;28;20481;-80
2021/11/01 06:27:01;;;;;;;14.05;2.13;;;9.80;94.90;;;;;;5034583;28;20021;-80
2021/11/01 06:29:33;;;;;;;14.05;2.03;;;9.70;94.90;;;;;;5015883;28;20560;-80
2021/11/01 06:32:13;;;;;;;13.48;1.75;;;9.70;94.90;;;;;;5031822;28;20029;-80
2021/11/01 06:53:49;;;;;;;9.50;1.50;;;9.80;95.00;;;;;;5010129;28;20045;-80
2021/11/01 07:15:30;;;;;;;9.25;1.50;;;10.10;95.00;;;;;;5035962;28;20079;-80
2021/11/01 07:18:19;;;;;;;13.48;1.67;;;10.10;94.90;;;;;;5033777;28;20554;-80
2021/11/01 07:20:55;;;;;;;13.13;2.15;;;10.20;95.00;;;;;;5050791;28;20064;-80
2021/11/01 09:25:03;;;;;;;8.50;1.75;;;12.20;90.20;;;;;;5027762;28;20037;-78
2021/11/01 09:27:30;;;;;;;9.63;1.63;;;12.20;90.20;;;;;;5027020;28;20018;-78
2021/11/01 09:38:10;;;;;;;11.13;1.42;;;12.50;88.60;;;;;;5027321;28;20052;-78
2021/11/01 09:43:20;;;;;;;9.75;1.30;;;12.60;88.60;;;;;;5026417;28;20025;-78
2021/11/01 09:45:46;;;;;;;8.00;1.50;;;12.70;88.40;;;;;;5011346;28;20086;-78
2021/11/01 09:48:13;;;;;;;7.90;1.38;;;12.70;86.60;;;;;;5025587;28;20033;-78
2021/11/01 09:50:39;;;;;;;6.38;1.10;;;12.70;86.80;;;;;;5025373;28;20033;-78
2021/11/01 09:53:16;;;;;;;7.43;1.38;;;12.80;87.10;;;;;;5007532;28;20417;-78
2021/11/01 09:55:50;;;;;;;7.10;1.10;;;12.80;87.50;;;;;;5006049;28;20030;-78
2021/11/01 10:01:05;;;;;;;12.23;1.35;;;12.90;86.90;;;;;;5011754;28;20488;-80
2021/11/01 10:03:39;;;;;;;6.32;0.93;;;13.00;86.60;;;;;;5024336;28;20026;-81
2021/11/01 10:06:06;;;;;;;10.07;1.30;;;13.10;86.70;;;;;;5010344;28;20509;-79
2021/11/01 10:08:32;;;;;;;9.98;1.40;;;13.20;86.50;;;;;;4992662;28;20030;-80
2021/11/01 10:10:58;;;;;;;6.10;1.38;;;13.20;85.90;;;;;;5009926;28;20029;-81
2021/11/01 10:13:28;;;;;;;9.32;1.30;;;13.30;86.60;;;;;;5021127;28;20029;-80
2021/11/01 10:18:52;;;;;;;8.77;1.60;;;13.50;85.00;;;;;;5040701;28;20044;-80
2021/11/01 10:21:19;;;;;;;10.43;1.35;;;13.60;83.50;;;;;;5014670;28;20056;-80
2021/11/01 10:23:51;;;;;;;8.27;1.50;;;13.60;83.80;;;;;;5032179;28;20574;-80
2021/11/01 10:26:20;;;;;;;7.50;1.40;;;13.60;83.70;;;;;;5031614;28;20461;-80
2021/11/01 10:28:52;;;;;;;6.10;1.20;;;13.60;83.20;;;;;;5049645;28;20032;-80
2021/11/01 10:31:26;;;;;;;7.30;1.25;;;13.60;83.50;;;;;;5031464;28;20116;-80
2021/11/01 10:34:07;;;;;;;11.38;1.33;;;13.70;83.20;;;;;;5030178;28;20018;-80
2021/11/01 10:36:38;;;;;;;6.97;1.38;;;13.80;83.50;;;;;;5031476;28;20044;-80
2021/11/01 10:39:11;;;;;;;6.93;1.02;;;13.80;82.50;;;;;;5014097;28;20037;-80
2021/11/01 10:42:04;;;;;;;9.85;1.20;;;13.90;82.60;;;;;;5010112;28;20026;-80
2021/11/01 10:56:47;;;;;;;7.75;1.13;;;14.00;81.20;;;;;;5026851;28;20055;-80
2021/11/01 11:13:31;;;;;;;4.63;1.10;;;14.50;79.40;;;;;;4988603;28;20054;-81
2021/11/01 11:15:40;;;;;;;4.78;1.00;;;14.60;79.30;;;;;;5057085;28;20041;-81
2021/11/01 11:21:00;;;;;;;8.38;1.20;;;14.70;79.40;;;;;;5038379;28;20033;-80
2021/11/01 11:24:16;;;;;;;9.10;1.60;;;14.70;79.20;;;;;;5019654;28;20021;-81
2021/11/01 11:40:20;;;;;;;8.57;1.30;;;15.10;75.90;;;;;;5033995;28;20731;-81
2021/11/01 11:47:06;;;;;;;8.50;1.05;;;15.10;77.60;;;;;;5071376;28;20045;-80
2021/11/01 11:48:42;;;;;;;6.57;1.00;;;15.20;76.50;;;;;;5032871;28;20038;-80
2021/11/01 11:51:12;;;;;;;10.27;1.13;;;15.20;75.70;;;;;;5029906;28;20565;-80
2021/11/01 11:53:57;;;;;;;10.95;1.52;;;15.20;75.30;;;;;;5034079;28;20052;-80
2021/11/01 11:56:29;;;;;;;7.55;1.10;;;15.20;74.60;;;;;;5033017;28;20028;-80
2021/11/01 11:58:58;;;;;;;7.75;1.20;;;15.10;75.50;;;;;;5032292;28;20470;-79
2021/11/01 12:01:32;;;;;;;6.97;1.20;;;15.10;75.70;;;;;;5046364;28;20453;-80
2021/11/01 12:04:00;;;;;;;4.63;1.10;;;15.00;75.90;;;;;;5016499;28;20036;-80
2021/11/01 12:07:03;;;;;;;7.70;1.30;;;14.90;76.60;;;;;;5031725;28;20052;-80
2021/11/01 12:12:53;;;;;;;8.38;1.42;;;14.90;77.20;;;;;;5053430;28;20045;-80
2021/11/01 12:17:28;;;;;;;6.45;1.00;;;14.70;76.30;;;;;;5031114;28;20050;-80
2021/11/01 12:19:57;;;;;;;10.93;1.50;;;14.60;76.60;;;;;;5014343;28;20029;-80
2021/11/01 12:22:33;;;;;;;6.43;0.80;;;14.60;76.40;;;;;;5031410;28;20025;-80
2021/11/01 12:25:02;;;;;;;7.13;1.38;;;14.60;76.80;;;;;;5032643;28;20113;-79
2021/11/01 12:27:31;;;;;;;5.20;1.13;;;14.70;76.10;;;;;;5033914;28;20028;-78
2021/11/01 12:29:57;;;;;;;10.52;1.38;;;14.80;76.30;;;;;;5032019;28;20045;-79
2021/11/01 12:32:23;;;;;;;11.18;1.15;;;14.80;76.00;;;;;;5031773;28;20051;-79
2021/11/01 12:34:54;;;;;;;7.22;1.00;;;14.90;75.30;;;;;;5031244;28;20037;-79
2021/11/01 12:37:28;;;;;;;11.98;1.67;;;14.90;76.10;;;;;;5049574;28;20025;-80
2021/11/01 12:40:10;;;;;;;7.25;0.70;;;14.90;75.70;;;;;;5019023;28;20052;-81
2021/11/01 12:42:43;;;;;;;5.22;1.00;;;14.90;76.10;;;;;;5031822;28;20535;-81
2021/11/01 12:48:23;;;;;;;7.78;0.80;;;14.80;75.60;;;;;;5039903;28;20048;-81
2021/11/01 12:59:42;;;;;;;8.80;0.90;;;14.90;73.30;;;;;;5132834;27;20026;-81
2021/11/01 13:02:13;;;;;;;5.65;0.95;;;14.80;72.50;;;;;;5132590;27;20023;-81
2021/11/01 13:04:39;;;;;;;6.60;1.10;;;14.90;73.50;;;;;;5132871;27;20035;-81
2021/11/01 13:09:41;;;;;;;5.00;1.17;;;15.30;72.90;;;;;;5132663;27;20027;-81
2021/11/01 13:19:54;;;;;;;10.93;1.35;;;14.90;73.60;;;;;;5029848;28;20114;-81
2021/11/01 13:22:31;;;;;;;5.85;1.02;;;14.90;74.50;;;;;;5029618;28;20108;-81
2021/11/01 13:38:53;;;;;;;8.60;0.98;;;14.50;75.90;;;;;;5068393;28;20033;-82
2021/11/01 13:41:29;;;;;;;;;;;14.40;76.30;;;;;;5068605;28;20021;-81
2021/11/01 13:44:15;;;;;;;4.88;1.08;;;14.40;77.00;;;;;;5068159;28;19977;-82
2021/11/01 13:47:06;;;;;;;4.88;1.10;;;14.40;76.40;;;;;;5067164;28;20039;-81
2021/11/01 13:49:35;;;;;;;4.30;1.00;;;14.40;76.60;;;;;;5067198;28;20097;-81
2021/11/01 13:55:12;;;;;;;7.00;1.30;;;14.40;78.00;;;;;;5067133;28;20044;-81
2021/11/01 13:58:04;;;;;;;6.40;1.10;;;14.40;76.90;;;;;;5069295;28;20028;-81
2021/11/01 14:11:38;;;;;;;4.15;1.00;;;14.40;76.40;;;;;;5068680;28;20583;-81
2021/11/01 14:14:44;;;;;;;2.88;0.80;;;14.50;75.20;;;;;;5069016;28;20023;-81
2021/11/01 15:08:56;;;;;;;5.45;1.05;;;13.80;79.80;;;;;;5054402;28;20064;-81
2021/11/01 15:21:32;;;;;;;5.30;0.85;;;13.70;78.80;;;;;;5034258;28;20401;-81
2021/11/01 15:37:19;;;;;;;4.80;0.80;;;13.50;80.00;;;;;;5054343;28;20116;-80
2021/11/01 16:17:58;;;;;;;6.65;1.25;;;12.60;83.30;;;;;;5053039;28;20036;-80
2021/11/01 16:20:23;;;;;;;7.32;1.13;;;12.50;83.60;;;;;;5036707;28;20027;-80
2021/11/01 16:23:00;;;;;;;5.43;1.30;;;12.40;83.70;;;;;;5035264;28;20486;-79
2021/11/01 16:25:26;;;;;;;5.20;1.02;;;12.40;83.80;;;;;;5039046;28;20048;-80
2021/11/01 16:27:52;;;;;;;4.85;1.20;;;12.30;84.00;;;;;;5045374;28;20046;-81
2021/11/01 16:30:21;;;;;;;4.28;1.13;;;12.30;84.20;;;;;;5049142;28;20039;-81
2021/11/01 16:32:53;;;;;;;7.57;1.42;;;12.20;84.40;;;;;;5052783;28;20773;-80
2021/11/01 16:35:23;;;;;;;4.25;1.17;;;12.10;84.60;;;;;;5052691;28;20039;-80
2021/11/01 16:38:13;;;;;;;8.75;1.80;;;12.10;84.70;;;;;;5031886;28;20039;-80
2021/11/01 16:40:41;;;;;;;4.68;1.13;;;12.00;84.70;;;;;;5051899;28;20021;-80
2021/11/01 16:43:15;;;;;;;2.53;0.80;;;12.00;84.90;;;;;;5052964;28;20021;-80
2021/11/01 16:45:41;;;;;;;7.60;1.00;;;11.90;85.00;;;;;;5032274;28;20501;-80
2021/11/01 16:48:08;;;;;;;5.93;0.82;;;11.90;85.20;;;;;;5047080;28;20041;-80
2021/11/01 16:50:35;;;;;;;5.47;0.80;;;11.80;85.40;;;;;;5053205;28;20023;-80
2021/11/01 16:53:00;;;;;;;4.63;0.90;;;11.80;85.50;;;;;;5051880;28;20028;-80
2021/11/01 16:55:47;;;;;;;4.13;0.90;;;11.70;85.60;;;;;;5053202;28;20037;-80
2021/11/01 16:58:19;;;;;;;5.45;1.10;;;11.70;85.70;;;;;;5052417;28;20059;-80
2021/11/01 17:00:57;;;;;;;6.65;1.10;;;11.70;85.90;;;;;;5035377;28;20029;-80
2021/11/01 17:35:59;;;;;;;7.70;1.52;;;11.80;86.50;;;;;;5052271;28;20108;-78
2021/11/01 18:37:40;;;;;;;2.78;0.73;;;10.90;92.00;;;;;;5054534;28;20039;-81
2021/11/01 18:45:40;;;;;;;6.43;3.55;;;10.90;92.00;;;;;;5054095;28;20033;-81
2021/11/01 18:51:10;;;;;;;5.45;3.15;;;10.90;92.00;;;;;;5054394;28;20402;-81
2021/11/01 18:53:43;;;;;;;5.72;2.30;;;10.80;92.00;;;;;;5046633;28;20025;-80
2021/11/01 18:56:11;;;;;;;5.70;2.20;;;10.90;92.30;;;;;;5033572;28;20041;-80
2021/11/01 18:58:40;;;;;;;6.68;2.08;;;10.90;92.00;;;;;;5043633;28;20029;-80
2021/11/01 19:01:09;;;;;;;3.47;1.60;;;10.90;92.00;;;;;;5054436;28;20025;-80
2021/11/01 19:03:42;;;;;;;2.80;1.55;;;10.90;92.10;;;;;;5035471;28;20059;-79
2021/11/01 19:06:36;;;;;;;5.15;1.58;;;10.90;92.10;;;;;;5032482;28;20033;-80
2021/11/01 19:09:21;;;;;;;5.57;1.23;;;10.90;92.10;;;;;;5050116;28;20120;-80
2021/11/01 20:04:39;;;;;;;7.55;1.80;;;10.40;92.70;;;;;;5038563;28;20018;-78
2021/11/01 20:15:47;;;;;;;6.90;2.00;;;10.20;92.60;;;;;;5052018;28;20056;-79
2021/11/01 21:24:50;;;;;;;4.30;1.25;;;9.50;92.90;;;;;;5046636;28;20044;-79
2021/11/01 21:27:21;;;;;;;4.15;0.90;;;9.40;92.90;;;;;;5045828;28;20048;-78
2021/11/01 21:29:48;;;;;;;7.60;1.35;;;9.40;92.90;;;;;;5030402;28;20029;-78
2021/11/01 21:32:13;;;;;;;8.25;1.13;;;9.40;93.00;;;;;;5048263;28;20025;-79
2021/11/01 21:34:43;;;;;;;9.32;1.35;;;9.40;93.00;;;;;;5050525;28;20052;-79
2021/11/01 21:37:09;;;;;;;5.50;1.30;;;9.40;93.00;;;;;;5052054;28;20098;-78
2021/11/01 21:39:36;;;;;;;5.07;1.38;;;9.40;93.00;;;;;;5051451;28;20025;-78
2021/11/01 21:42:02;;;;;;;8.95;1.20;;;9.40;93.10;;;;;;5049360;28;20104;-78
2021/11/01 21:44:32;;;;;;;8.40;0.95;;;9.40;93.10;;;;;;5072904;28;20036;-77
2021/11/01 21:46:57;;;;;;;6.25;1.15;;;9.40;93.10;;;;;;5050857;28;20060;-78
2021/11/01 21:49:23;;;;;;;8.77;1.27;;;9.40;93.10;;;;;;5054282;28;20122;-78
2021/11/01 21:51:51;;;;;;;2.83;0.98;;;9.40;93.10;;;;;;5055876;28;20026;-78
2021/11/01 21:54:32;;;;;;;6.10;1.27;;;9.40;93.10;;;;;;5052147;28;20035;-77
2021/11/01 21:57:14;;;;;;;5.85;1.15;;;9.40;93.10;;;;;;5050876;28;20032;-78
2021/11/01 22:21:36;;;;;;;4.53;1.58;;;9.40;93.50;;;;;;5052019;28;20033;-79
2021/11/01 22:32:24;;;;;;;17.88;2.15;;;9.40;93.50;;;;;;5049870;28;20410;-79
2021/11/01 22:42:53;;;;;;;7.53;1.20;;;9.30;93.50;;;;;;5055129;28;20028;-79
2021/11/01 22:58:55;;;;;;;4.72;1.50;;;9.00;93.40;;;;;;5054309;28;20044;-79
2021/11/01 23:01:23;;;;;;;6.57;1.90;;;9.00;93.40;;;;;;5053111;28;20047;-79
2021/11/01 23:33:38;;;;;;;6.65;1.30;;;8.60;93.30;;;;;;5043260;28;20040;-79
2021/11/01 23:36:07;;;;;;;5.50;1.45;;;8.50;93.30;;;;;;5054341;28;20029;-79
2021/11/01 23:38:32;;;;;;;6.00;1.37;;;8.50;93.30;;;;;;5036391;28;20051;-78
2021/11/01 23:40:58;;;;;;;3.38;1.38;;;8.50;93.30;;;;;;5053498;28;20406;-79
2021/11/01 23:43:24;;;;;;;4.75;1.35;;;8.50;93.30;;;;;;5053060;28;20477;-79
2021/11/01 23:45:50;;;;;;;5.40;1.08;;;8.40;93.30;;;;;;5053973;28;20032;-78
2021/11/01 23:48:17;;;;;;;4.05;1.15;;;8.40;93.30;;;;;;5054146;28;20021;-79
2021/11/01 23:50:45;;;;;;;4.68;1.17;;;8.40;93.30;;;;;;5053970;28;20021;-79
2021/11/01 23:53:34;;;;;;;3.58;1.05;;;8.40;93.40;;;;;;5054143;28;20535;-79
2021/11/01 23:56:00;;;;;;;7.93;1.33;;;8.40;93.40;;;;;;5039138;28;20029;-79
2021/11/01 23:58:26;;;;;;;8.00;1.20;;;8.30;93.40;;;;;;5053653;28;20056;-79
